sensor_id;sensor_type;location;lat;lon;timestamp;P1;durP1;ratioP1;P2;durP2;ratioP2
37237;SDS011;23129;49.662;8.448;2023-02-28T00:01:33;1.05;;;0.68;;
37237;SDS011;23129;49.662;8.448;2023-02-28T00:04:03;1.08;;;1.08;;
37237;SDS011;23129;49.662;8.448;2023-02-28T00:06:31;1.40;;;1.23;;
37237;SDS011;23129;49.662;8.448;2023-02-28T00:09:00;3.67;;;1.73;;
37237;SDS011;23129;49.662;8.448;2023-02-28T00:11:28;1.50;;;0.85;;
37237;SDS011;23129;49.662;8.448;2023-02-28T00:13:57;1.38;;;1.00;;
37237;SDS011;23129;49.662;8.448;2023-02-28T00:16:26;2.83;;;0.68;;
37237;SDS011;23129;49.662;8.448;2023-02-28T00:18:54;1.63;;;1.10;;
37237;SDS011;23129;49.662;8.448;2023-02-28T00:21:24;4.82;;;2.08;;
37237;SDS011;23129;49.662;8.448;2023-02-28T00:23:54;1.45;;;1.05;;
37237;SDS011;23129;49.662;8.448;2023-02-28T00:26:22;0.95;;;0.88;;
37237;SDS011;23129;49.662;8.448;2023-02-28T00:28:51;1.05;;;0.85;;
37237;SDS011;23129;49.662;8.448;2023-02-28T00:31:21;3.00;;;1.88;;
37237;SDS011;23129;49.662;8.448;2023-02-28T00:33:50;2.92;;;0.88;;
37237;SDS011;23129;49.662;8.448;2023-02-28T00:36:19;2.42;;;1.27;;
37237;SDS011;23129;49.662;8.448;2023-02-28T00:38:49;3.00;;;1.05;;
37237;SDS011;23129;49.662;8.448;2023-02-28T00:41:18;1.98;;;1.40;;
37237;SDS011;23129;49.662;8.448;2023-02-28T00:43:46;1.92;;;1.38;;
37237;SDS011;23129;49.662;8.448;2023-02-28T00:46:15;1.33;;;1.23;;
37237;SDS011;23129;49.662;8.448;2023-02-28T00:48:43;2.55;;;1.15;;
37237;SDS011;23129;49.662;8.448;2023-02-28T00:51:13;1.20;;;0.75;;
37237;SDS011;23129;49.662;8.448;2023-02-28T00:53:42;1.15;;;1.05;;
37237;SDS011;23129;49.662;8.448;2023-02-28T00:56:11;1.13;;;1.02;;
37237;SDS011;23129;49.662;8.448;2023-02-28T00:58:39;1.13;;;1.05;;
37237;SDS011;23129;49.662;8.448;2023-02-28T01:01:08;1.38;;;1.27;;
37237;SDS011;23129;49.662;8.448;2023-02-28T01:03:37;1.10;;;1.05;;
37237;SDS011;23129;49.662;8.448;2023-02-28T01:06:06;0.68;;;0.68;;
37237;SDS011;23129;49.662;8.448;2023-02-28T01:08:34;1.17;;;0.80;;
37237;SDS011;23129;49.662;8.448;2023-02-28T01:11:07;1.98;;;1.17;;
37237;SDS011;23129;49.662;8.448;2023-02-28T01:13:40;5.00;;;1.05;;
37237;SDS011;23129;49.662;8.448;2023-02-28T01:16:11;1.00;;;0.93;;
37237;SDS011;23129;49.662;8.448;2023-02-28T01:18:40;0.80;;;0.80;;
37237;SDS011;23129;49.662;8.448;2023-02-28T01:21:09;1.33;;;1.20;;
37237;SDS011;23129;49.662;8.448;2023-02-28T01:23:40;2.08;;;1.10;;
37237;SDS011;23129;49.662;8.448;2023-02-28T01:26:10;0.85;;;0.80;;
37237;SDS011;23129;49.662;8.448;2023-02-28T01:28:41;2.88;;;0.80;;
37237;SDS011;23129;49.662;8.448;2023-02-28T01:31:09;3.97;;;1.48;;
37237;SDS011;23129;49.662;8.448;2023-02-28T01:33:38;2.78;;;1.10;;
37237;SDS011;23129;49.662;8.448;2023-02-28T01:36:09;2.40;;;1.42;;
37237;SDS011;23129;49.662;8.448;2023-02-28T01:38:41;1.38;;;0.85;;
37237;SDS011;23129;49.662;8.448;2023-02-28T01:41:12;1.38;;;1.00;;
37237;SDS011;23129;49.662;8.448;2023-02-28T01:43:56;1.10;;;1.00;;
37237;SDS011;23129;49.662;8.448;2023-02-28T01:46:30;0.80;;;0.80;;
37237;SDS011;23129;49.662;8.448;2023-02-28T01:49:05;1.00;;;0.90;;
37237;SDS011;23129;49.662;8.448;2023-02-28T01:51:39;0.98;;;0.73;;
37237;SDS011;23129;49.662;8.448;2023-02-28T01:54:13;1.15;;;1.05;;
37237;SDS011;23129;49.662;8.448;2023-02-28T01:56:46;2.90;;;1.50;;
37237;SDS011;23129;49.662;8.448;2023-02-28T01:59:21;2.95;;;0.75;;
37237;SDS011;23129;49.662;8.448;2023-02-28T02:01:54;1.30;;;1.20;;
37237;SDS011;23129;49.662;8.448;2023-02-28T02:04:23;2.58;;;0.88;;
37237;SDS011;23129;49.662;8.448;2023-02-28T02:06:59;0.73;;;0.73;;
37237;SDS011;23129;49.662;8.448;2023-02-28T02:09:27;0.98;;;0.82;;
37237;SDS011;23129;49.662;8.448;2023-02-28T02:11:56;0.93;;;0.93;;
37237;SDS011;23129;49.662;8.448;2023-02-28T02:14:36;0.98;;;0.98;;
37237;SDS011;23129;49.662;8.448;2023-02-28T02:17:18;1.33;;;0.85;;
37237;SDS011;23129;49.662;8.448;2023-02-28T02:23:31;1.42;;;1.20;;
37237;SDS011;23129;49.662;8.448;2023-02-28T02:26:29;0.80;;;0.77;;
37237;SDS011;23129;49.662;8.448;2023-02-28T02:29:34;1.10;;;0.80;;
37237;SDS011;23129;49.662;8.448;2023-02-28T02:32:41;1.17;;;0.98;;
37237;SDS011;23129;49.662;8.448;2023-02-28T02:35:32;1.43;;;0.70;;
37237;SDS011;23129;49.662;8.448;2023-02-28T02:38:07;5.10;;;1.00;;
37237;SDS011;23129;49.662;8.448;2023-02-28T02:40:44;1.48;;;1.10;;
37237;SDS011;23129;49.662;8.448;2023-02-28T02:43:20;1.45;;;1.15;;
37237;SDS011;23129;49.662;8.448;2023-02-28T02:45:56;1.13;;;1.08;;
37237;SDS011;23129;49.662;8.448;2023-02-28T02:48:32;0.98;;;0.98;;
37237;SDS011;23129;49.662;8.448;2023-02-28T02:51:09;0.82;;;0.80;;
37237;SDS011;23129;49.662;8.448;2023-02-28T02:53:42;0.85;;;0.80;;
37237;SDS011;23129;49.662;8.448;2023-02-28T02:56:16;1.60;;;1.30;;
37237;SDS011;23129;49.662;8.448;2023-02-28T02:58:49;1.02;;;0.93;;
37237;SDS011;23129;49.662;8.448;2023-02-28T03:01:21;1.55;;;0.98;;
37237;SDS011;23129;49.662;8.448;2023-02-28T03:06:26;0.82;;;0.70;;
37237;SDS011;23129;49.662;8.448;2023-02-28T03:08:54;0.77;;;0.75;;
37237;SDS011;23129;49.662;8.448;2023-02-28T03:11:23;2.25;;;0.80;;
37237;SDS011;23129;49.662;8.448;2023-02-28T03:14:00;1.17;;;1.08;;
37237;SDS011;23129;49.662;8.448;2023-02-28T03:20:15;2.67;;;1.00;;
37237;SDS011;23129;49.662;8.448;2023-02-28T03:22:54;1.02;;;0.93;;
37237;SDS011;23129;49.662;8.448;2023-02-28T03:25:36;1.65;;;1.10;;
37237;SDS011;23129;49.662;8.448;2023-02-28T03:28:12;1.55;;;0.90;;
37237;SDS011;23129;49.662;8.448;2023-02-28T03:30:47;0.65;;;0.65;;
37237;SDS011;23129;49.662;8.448;2023-02-28T03:35:52;3.88;;;1.02;;
37237;SDS011;23129;49.662;8.448;2023-02-28T03:38:29;1.80;;;0.80;;
37237;SDS011;23129;49.662;8.448;2023-02-28T03:41:05;1.10;;;1.02;;
37237;SDS011;23129;49.662;8.448;2023-02-28T03:43:41;0.75;;;0.60;;
37237;SDS011;23129;49.662;8.448;2023-02-28T03:46:17;3.28;;;0.82;;
37237;SDS011;23129;49.662;8.448;2023-02-28T03:48:51;1.60;;;0.95;;
37237;SDS011;23129;49.662;8.448;2023-02-28T03:51:24;1.42;;;1.02;;
37237;SDS011;23129;49.662;8.448;2023-02-28T03:53:58;0.93;;;0.88;;
37237;SDS011;23129;49.662;8.448;2023-02-28T03:56:33;1.40;;;0.90;;
37237;SDS011;23129;49.662;8.448;2023-02-28T03:59:07;0.80;;;0.80;;
37237;SDS011;23129;49.662;8.448;2023-02-28T04:01:41;0.77;;;0.77;;
37237;SDS011;23129;49.662;8.448;2023-02-28T04:04:12;1.77;;;0.98;;
37237;SDS011;23129;49.662;8.448;2023-02-28T04:06:41;1.45;;;0.93;;
37237;SDS011;23129;49.662;8.448;2023-02-28T04:09:12;1.25;;;0.88;;
37237;SDS011;23129;49.662;8.448;2023-02-28T04:11:42;0.82;;;0.82;;
37237;SDS011;23129;49.662;8.448;2023-02-28T04:14:13;0.73;;;0.65;;
37237;SDS011;23129;49.662;8.448;2023-02-28T04:16:42;1.42;;;1.15;;
37237;SDS011;23129;49.662;8.448;2023-02-28T04:19:11;1.20;;;1.05;;
37237;SDS011;23129;49.662;8.448;2023-02-28T04:21:41;1.40;;;1.30;;
37237;SDS011;23129;49.662;8.448;2023-02-28T04:24:13;1.15;;;1.10;;
37237;SDS011;23129;49.662;8.448;2023-02-28T04:26:44;0.98;;;0.82;;
37237;SDS011;23129;49.662;8.448;2023-02-28T04:29:18;1.23;;;1.13;;
37237;SDS011;23129;49.662;8.448;2023-02-28T04:31:49;1.75;;;1.60;;
37237;SDS011;23129;49.662;8.448;2023-02-28T04:34:20;0.80;;;0.80;;
37237;SDS011;23129;49.662;8.448;2023-02-28T04:36:49;1.17;;;1.08;;
37237;SDS011;23129;49.662;8.448;2023-02-28T04:39:39;1.85;;;1.42;;
37237;SDS011;23129;49.662;8.448;2023-02-28T04:42:08;1.25;;;1.17;;
37237;SDS011;23129;49.662;8.448;2023-02-28T04:44:37;1.30;;;1.20;;
37237;SDS011;23129;49.662;8.448;2023-02-28T04:47:05;1.27;;;1.17;;
37237;SDS011;23129;49.662;8.448;2023-02-28T04:49:34;1.42;;;1.33;;
37237;SDS011;23129;49.662;8.448;2023-02-28T04:52:03;1.13;;;1.00;;
37237;SDS011;23129;49.662;8.448;2023-02-28T04:54:33;1.33;;;1.25;;
37237;SDS011;23129;49.662;8.448;2023-02-28T04:57:03;1.40;;;1.33;;
37237;SDS011;23129;49.662;8.448;2023-02-28T04:59:32;5.13;;;2.15;;
37237;SDS011;23129;49.662;8.448;2023-02-28T05:02:00;1.77;;;1.40;;
37237;SDS011;23129;49.662;8.448;2023-02-28T05:04:33;1.60;;;1.42;;
37237;SDS011;23129;49.662;8.448;2023-02-28T05:07:02;4.45;;;1.40;;
37237;SDS011;23129;49.662;8.448;2023-02-28T05:09:30;2.80;;;1.45;;
37237;SDS011;23129;49.662;8.448;2023-02-28T05:12:00;3.60;;;1.73;;
37237;SDS011;23129;49.662;8.448;2023-02-28T05:14:30;1.30;;;1.15;;
37237;SDS011;23129;49.662;8.448;2023-02-28T05:16:58;1.10;;;1.00;;
37237;SDS011;23129;49.662;8.448;2023-02-28T05:19:26;1.08;;;1.02;;
37237;SDS011;23129;49.662;8.448;2023-02-28T05:21:55;1.48;;;1.35;;
37237;SDS011;23129;49.662;8.448;2023-02-28T05:24:23;1.33;;;1.20;;
37237;SDS011;23129;49.662;8.448;2023-02-28T05:26:53;1.88;;;1.42;;
37237;SDS011;23129;49.662;8.448;2023-02-28T05:29:22;1.67;;;1.35;;
37237;SDS011;23129;49.662;8.448;2023-02-28T05:31:52;3.20;;;1.17;;
37237;SDS011;23129;49.662;8.448;2023-02-28T05:34:20;1.77;;;1.23;;
37237;SDS011;23129;49.662;8.448;2023-02-28T05:36:49;1.33;;;1.00;;
37237;SDS011;23129;49.662;8.448;2023-02-28T05:39:17;2.45;;;1.80;;
37237;SDS011;23129;49.662;8.448;2023-02-28T05:41:46;2.55;;;1.63;;
37237;SDS011;23129;49.662;8.448;2023-02-28T05:44:15;3.53;;;1.80;;
37237;SDS011;23129;49.662;8.448;2023-02-28T05:46:43;2.13;;;1.92;;
37237;SDS011;23129;49.662;8.448;2023-02-28T05:49:13;1.20;;;1.10;;
37237;SDS011;23129;49.662;8.448;2023-02-28T05:51:41;4.22;;;1.70;;
37237;SDS011;23129;49.662;8.448;2023-02-28T05:54:10;2.25;;;2.05;;
37237;SDS011;23129;49.662;8.448;2023-02-28T05:56:39;1.33;;;1.08;;
37237;SDS011;23129;49.662;8.448;2023-02-28T05:59:10;1.63;;;1.52;;
37237;SDS011;23129;49.662;8.448;2023-02-28T06:01:39;2.10;;;1.70;;
37237;SDS011;23129;49.662;8.448;2023-02-28T06:04:16;4.80;;;1.48;;
37237;SDS011;23129;49.662;8.448;2023-02-28T06:06:57;1.58;;;1.48;;
37237;SDS011;23129;49.662;8.448;2023-02-28T06:09:26;1.70;;;1.08;;
37237;SDS011;23129;49.662;8.448;2023-02-28T06:11:57;2.85;;;2.65;;
37237;SDS011;23129;49.662;8.448;2023-02-28T06:14:25;1.98;;;1.73;;
37237;SDS011;23129;49.662;8.448;2023-02-28T06:16:54;3.13;;;2.17;;
37237;SDS011;23129;49.662;8.448;2023-02-28T06:19:26;1.77;;;1.30;;
37237;SDS011;23129;49.662;8.448;2023-02-28T06:21:55;2.38;;;1.58;;
37237;SDS011;23129;49.662;8.448;2023-02-28T06:24:26;5.30;;;1.45;;
37237;SDS011;23129;49.662;8.448;2023-02-28T06:26:58;2.22;;;2.03;;
37237;SDS011;23129;49.662;8.448;2023-02-28T06:29:32;1.63;;;1.40;;
37237;SDS011;23129;49.662;8.448;2023-02-28T06:32:01;1.00;;;0.90;;
37237;SDS011;23129;49.662;8.448;2023-02-28T06:34:31;5.05;;;2.50;;
37237;SDS011;23129;49.662;8.448;2023-02-28T06:37:01;2.05;;;1.63;;
37237;SDS011;23129;49.662;8.448;2023-02-28T06:39:29;1.33;;;1.17;;
37237;SDS011;23129;49.662;8.448;2023-02-28T06:41:57;4.15;;;2.10;;
37237;SDS011;23129;49.662;8.448;2023-02-28T06:44:26;2.47;;;2.28;;
37237;SDS011;23129;49.662;8.448;2023-02-28T06:47:02;1.02;;;0.75;;
37237;SDS011;23129;49.662;8.448;2023-02-28T06:49:34;1.33;;;1.23;;
37237;SDS011;23129;49.662;8.448;2023-02-28T06:52:03;2.20;;;1.80;;
37237;SDS011;23129;49.662;8.448;2023-02-28T06:54:32;1.42;;;1.23;;
37237;SDS011;23129;49.662;8.448;2023-02-28T06:57:00;3.00;;;2.10;;
37237;SDS011;23129;49.662;8.448;2023-02-28T06:59:28;3.13;;;1.80;;
37237;SDS011;23129;49.662;8.448;2023-02-28T07:01:57;3.25;;;1.75;;
37237;SDS011;23129;49.662;8.448;2023-02-28T07:04:26;2.17;;;1.85;;
37237;SDS011;23129;49.662;8.448;2023-02-28T07:06:57;1.15;;;1.10;;
37237;SDS011;23129;49.662;8.448;2023-02-28T07:09:25;2.45;;;1.85;;
37237;SDS011;23129;49.662;8.448;2023-02-28T07:11:56;5.13;;;2.03;;
37237;SDS011;23129;49.662;8.448;2023-02-28T07:14:25;4.32;;;2.03;;
37237;SDS011;23129;49.662;8.448;2023-02-28T07:16:53;3.03;;;1.55;;
37237;SDS011;23129;49.662;8.448;2023-02-28T07:19:21;2.15;;;1.88;;
37237;SDS011;23129;49.662;8.448;2023-02-28T07:21:50;3.33;;;1.40;;
37237;SDS011;23129;49.662;8.448;2023-02-28T07:24:19;3.40;;;2.00;;
37237;SDS011;23129;49.662;8.448;2023-02-28T07:26:50;4.35;;;2.25;;
37237;SDS011;23129;49.662;8.448;2023-02-28T07:29:18;2.25;;;2.05;;
37237;SDS011;23129;49.662;8.448;2023-02-28T07:31:47;3.25;;;1.90;;
37237;SDS011;23129;49.662;8.448;2023-02-28T07:34:16;3.85;;;2.20;;
37237;SDS011;23129;49.662;8.448;2023-02-28T07:36:45;2.90;;;1.75;;
37237;SDS011;23129;49.662;8.448;2023-02-28T07:39:13;5.00;;;2.38;;
37237;SDS011;23129;49.662;8.448;2023-02-28T07:41:43;4.10;;;1.50;;
37237;SDS011;23129;49.662;8.448;2023-02-28T07:44:11;2.03;;;1.83;;
37237;SDS011;23129;49.662;8.448;2023-02-28T07:46:40;1.80;;;1.40;;
37237;SDS011;23129;49.662;8.448;2023-02-28T07:49:09;2.78;;;2.15;;
37237;SDS011;23129;49.662;8.448;2023-02-28T07:51:37;2.72;;;2.25;;
37237;SDS011;23129;49.662;8.448;2023-02-28T07:54:06;5.65;;;1.88;;
37237;SDS011;23129;49.662;8.448;2023-02-28T07:56:35;2.13;;;1.92;;
37237;SDS011;23129;49.662;8.448;2023-02-28T07:59:04;2.15;;;1.65;;
37237;SDS011;23129;49.662;8.448;2023-02-28T08:01:32;3.58;;;1.88;;
37237;SDS011;23129;49.662;8.448;2023-02-28T08:04:01;4.25;;;2.67;;
37237;SDS011;23129;49.662;8.448;2023-02-28T08:06:30;3.05;;;1.92;;
37237;SDS011;23129;49.662;8.448;2023-02-28T08:08:58;3.05;;;2.33;;
37237;SDS011;23129;49.662;8.448;2023-02-28T08:11:27;2.83;;;1.95;;
37237;SDS011;23129;49.662;8.448;2023-02-28T08:13:56;5.63;;;2.40;;
37237;SDS011;23129;49.662;8.448;2023-02-28T08:16:26;2.80;;;1.77;;
37237;SDS011;23129;49.662;8.448;2023-02-28T08:18:54;2.75;;;2.08;;
37237;SDS011;23129;49.662;8.448;2023-02-28T08:21:23;2.67;;;1.55;;
37237;SDS011;23129;49.662;8.448;2023-02-28T08:23:51;3.13;;;2.22;;
37237;SDS011;23129;49.662;8.448;2023-02-28T08:26:20;4.68;;;1.98;;
37237;SDS011;23129;49.662;8.448;2023-02-28T08:28:48;1.83;;;1.40;;
37237;SDS011;23129;49.662;8.448;2023-02-28T08:31:17;2.35;;;1.88;;
37237;SDS011;23129;49.662;8.448;2023-02-28T08:33:47;2.63;;;1.95;;
37237;SDS011;23129;49.662;8.448;2023-02-28T08:36:18;1.65;;;1.45;;
37237;SDS011;23129;49.662;8.448;2023-02-28T08:38:47;2.05;;;1.67;;
37237;SDS011;23129;49.662;8.448;2023-02-28T08:41:15;1.77;;;1.67;;
37237;SDS011;23129;49.662;8.448;2023-02-28T08:43:44;2.45;;;2.00;;
37237;SDS011;23129;49.662;8.448;2023-02-28T08:46:13;5.07;;;1.75;;
37237;SDS011;23129;49.662;8.448;2023-02-28T08:48:41;3.90;;;2.33;;
37237;SDS011;23129;49.662;8.448;2023-02-28T08:51:12;2.58;;;2.15;;
37237;SDS011;23129;49.662;8.448;2023-02-28T08:53:45;3.28;;;2.65;;
37237;SDS011;23129;49.662;8.448;2023-02-28T08:56:15;3.92;;;2.88;;
37237;SDS011;23129;49.662;8.448;2023-02-28T08:58:44;3.40;;;2.58;;
37237;SDS011;23129;49.662;8.448;2023-02-28T09:01:14;4.35;;;2.15;;
37237;SDS011;23129;49.662;8.448;2023-02-28T09:03:45;4.45;;;2.83;;
37237;SDS011;23129;49.662;8.448;2023-02-28T09:06:16;2.53;;;2.30;;
37237;SDS011;23129;49.662;8.448;2023-02-28T09:08:47;3.53;;;2.53;;
37237;SDS011;23129;49.662;8.448;2023-02-28T09:11:15;4.55;;;2.67;;
37237;SDS011;23129;49.662;8.448;2023-02-28T09:13:45;6.60;;;2.58;;
37237;SDS011;23129;49.662;8.448;2023-02-28T09:16:14;3.20;;;2.17;;
37237;SDS011;23129;49.662;8.448;2023-02-28T09:18:44;4.63;;;3.20;;
37237;SDS011;23129;49.662;8.448;2023-02-28T09:21:14;3.63;;;2.72;;
37237;SDS011;23129;49.662;8.448;2023-02-28T09:23:45;4.90;;;3.08;;
37237;SDS011;23129;49.662;8.448;2023-02-28T09:26:16;6.57;;;3.38;;
37237;SDS011;23129;49.662;8.448;2023-02-28T09:28:48;2.72;;;2.42;;
37237;SDS011;23129;49.662;8.448;2023-02-28T09:31:18;3.88;;;2.92;;
37237;SDS011;23129;49.662;8.448;2023-02-28T09:33:49;3.53;;;2.50;;
37237;SDS011;23129;49.662;8.448;2023-02-28T09:36:21;5.38;;;2.65;;
37237;SDS011;23129;49.662;8.448;2023-02-28T09:39:07;2.85;;;2.50;;
37237;SDS011;23129;49.662;8.448;2023-02-28T09:41:37;3.40;;;2.10;;
37237;SDS011;23129;49.662;8.448;2023-02-28T09:44:15;5.78;;;3.33;;
37237;SDS011;23129;49.662;8.448;2023-02-28T09:46:50;3.88;;;2.53;;
37237;SDS011;23129;49.662;8.448;2023-02-28T09:49:28;5.97;;;3.70;;
37237;SDS011;23129;49.662;8.448;2023-02-28T09:52:09;5.80;;;3.30;;
37237;SDS011;23129;49.662;8.448;2023-02-28T09:54:41;5.97;;;3.40;;
37237;SDS011;23129;49.662;8.448;2023-02-28T09:57:13;5.78;;;3.40;;
37237;SDS011;23129;49.662;8.448;2023-02-28T09:59:51;5.88;;;2.67;;
37237;SDS011;23129;49.662;8.448;2023-02-28T10:05:35;5.05;;;3.22;;
37237;SDS011;23129;49.662;8.448;2023-02-28T10:08:13;5.18;;;3.10;;
37237;SDS011;23129;49.662;8.448;2023-02-28T10:10:44;5.30;;;2.92;;
37237;SDS011;23129;49.662;8.448;2023-02-28T10:13:17;4.53;;;3.20;;
37237;SDS011;23129;49.662;8.448;2023-02-28T10:15:52;5.00;;;3.42;;
37237;SDS011;23129;49.662;8.448;2023-02-28T10:18:27;6.25;;;3.17;;
37237;SDS011;23129;49.662;8.448;2023-02-28T10:21:03;5.97;;;3.78;;
37237;SDS011;23129;49.662;8.448;2023-02-28T10:23:35;9.50;;;3.85;;
37237;SDS011;23129;49.662;8.448;2023-02-28T10:26:08;7.15;;;2.67;;
37237;SDS011;23129;49.662;8.448;2023-02-28T10:28:40;9.25;;;4.20;;
37237;SDS011;23129;49.662;8.448;2023-02-28T10:31:10;7.20;;;4.03;;
37237;SDS011;23129;49.662;8.448;2023-02-28T10:33:43;4.97;;;3.70;;
37237;SDS011;23129;49.662;8.448;2023-02-28T10:36:14;6.25;;;3.75;;
37237;SDS011;23129;49.662;8.448;2023-02-28T10:38:48;3.40;;;2.75;;
37237;SDS011;23129;49.662;8.448;2023-02-28T10:41:27;4.45;;;3.50;;
37237;SDS011;23129;49.662;8.448;2023-02-28T10:44:13;5.07;;;3.35;;
37237;SDS011;23129;49.662;8.448;2023-02-28T10:46:47;5.10;;;2.92;;
37237;SDS011;23129;49.662;8.448;2023-02-28T10:49:20;10.10;;;3.97;;
37237;SDS011;23129;49.662;8.448;2023-02-28T10:51:51;7.90;;;5.15;;
37237;SDS011;23129;49.662;8.448;2023-02-28T10:54:24;6.80;;;4.07;;
37237;SDS011;23129;49.662;8.448;2023-02-28T10:59:46;4.35;;;3.38;;
37237;SDS011;23129;49.662;8.448;2023-02-28T11:02:29;5.60;;;3.40;;
37237;SDS011;23129;49.662;8.448;2023-02-28T11:05:02;4.93;;;3.30;;
37237;SDS011;23129;49.662;8.448;2023-02-28T11:07:51;7.57;;;3.58;;
37237;SDS011;23129;49.662;8.448;2023-02-28T11:10:23;4.30;;;3.67;;
37237;SDS011;23129;49.662;8.448;2023-02-28T11:12:56;5.82;;;3.15;;
37237;SDS011;23129;49.662;8.448;2023-02-28T11:15:27;4.93;;;3.78;;
37237;SDS011;23129;49.662;8.448;2023-02-28T11:17:58;5.78;;;4.10;;
37237;SDS011;23129;49.662;8.448;2023-02-28T11:20:30;7.43;;;3.70;;
37237;SDS011;23129;49.662;8.448;2023-02-28T11:23:02;4.72;;;3.05;;
37237;SDS011;23129;49.662;8.448;2023-02-28T11:25:34;4.70;;;3.90;;
37237;SDS011;23129;49.662;8.448;2023-02-28T11:28:06;8.20;;;4.05;;
37237;SDS011;23129;49.662;8.448;2023-02-28T11:31:04;5.43;;;3.10;;
37237;SDS011;23129;49.662;8.448;2023-02-28T11:33:46;17.10;;;3.47;;
37237;SDS011;23129;49.662;8.448;2023-02-28T11:36:18;4.72;;;3.72;;
37237;SDS011;23129;49.662;8.448;2023-02-28T11:38:51;5.47;;;3.50;;
37237;SDS011;23129;49.662;8.448;2023-02-28T11:41:33;7.03;;;3.63;;
37237;SDS011;23129;49.662;8.448;2023-02-28T11:44:27;6.63;;;3.47;;
37237;SDS011;23129;49.662;8.448;2023-02-28T11:47:10;3.30;;;3.00;;
37237;SDS011;23129;49.662;8.448;2023-02-28T11:49:48;9.80;;;3.70;;
37237;SDS011;23129;49.662;8.448;2023-02-28T11:52:35;4.70;;;3.85;;
37237;SDS011;23129;49.662;8.448;2023-02-28T11:55:14;3.72;;;3.42;;
37237;SDS011;23129;49.662;8.448;2023-02-28T11:58:00;6.40;;;3.58;;
37237;SDS011;23129;49.662;8.448;2023-02-28T12:00:54;6.82;;;3.67;;
37237;SDS011;23129;49.662;8.448;2023-02-28T12:03:39;8.55;;;3.70;;
37237;SDS011;23129;49.662;8.448;2023-02-28T12:06:18;5.63;;;3.70;;
37237;SDS011;23129;49.662;8.448;2023-02-28T12:08:55;7.85;;;3.80;;
37237;SDS011;23129;49.662;8.448;2023-02-28T12:11:35;13.18;;;5.15;;
37237;SDS011;23129;49.662;8.448;2023-02-28T12:14:24;8.25;;;4.68;;
37237;SDS011;23129;49.662;8.448;2023-02-28T12:17:34;4.85;;;3.33;;
37237;SDS011;23129;49.662;8.448;2023-02-28T12:20:16;4.60;;;4.20;;
37237;SDS011;23129;49.662;8.448;2023-02-28T12:22:55;7.78;;;4.50;;
37237;SDS011;23129;49.662;8.448;2023-02-28T12:25:48;5.28;;;3.95;;
37237;SDS011;23129;49.662;8.448;2023-02-28T12:28:26;12.20;;;3.88;;
37237;SDS011;23129;49.662;8.448;2023-02-28T12:31:03;5.85;;;3.70;;
37237;SDS011;23129;49.662;8.448;2023-02-28T12:33:38;5.80;;;4.00;;
37237;SDS011;23129;49.662;8.448;2023-02-28T12:36:13;7.03;;;3.92;;
37237;SDS011;23129;49.662;8.448;2023-02-28T12:38:48;6.75;;;3.95;;
37237;SDS011;23129;49.662;8.448;2023-02-28T12:41:26;8.32;;;4.00;;
37237;SDS011;23129;49.662;8.448;2023-02-28T12:44:02;5.43;;;4.30;;
37237;SDS011;23129;49.662;8.448;2023-02-28T12:46:40;11.02;;;4.07;;
37237;SDS011;23129;49.662;8.448;2023-02-28T12:49:12;7.32;;;4.07;;
37237;SDS011;23129;49.662;8.448;2023-02-28T12:51:44;8.70;;;3.70;;
37237;SDS011;23129;49.662;8.448;2023-02-28T12:54:16;6.05;;;3.63;;
37237;SDS011;23129;49.662;8.448;2023-02-28T12:56:54;7.00;;;4.10;;
37237;SDS011;23129;49.662;8.448;2023-02-28T12:59:34;7.05;;;4.05;;
37237;SDS011;23129;49.662;8.448;2023-02-28T13:02:15;6.32;;;4.30;;
37237;SDS011;23129;49.662;8.448;2023-02-28T13:05:19;6.90;;;4.20;;
37237;SDS011;23129;49.662;8.448;2023-02-28T13:08:20;5.78;;;4.32;;
37237;SDS011;23129;49.662;8.448;2023-02-28T13:11:23;4.90;;;3.83;;
37237;SDS011;23129;49.662;8.448;2023-02-28T13:14:00;10.38;;;3.88;;
37237;SDS011;23129;49.662;8.448;2023-02-28T13:16:48;9.52;;;4.38;;
37237;SDS011;23129;49.662;8.448;2023-02-28T13:19:32;5.72;;;4.15;;
37237;SDS011;23129;49.662;8.448;2023-02-28T13:22:04;8.23;;;4.03;;
37237;SDS011;23129;49.662;8.448;2023-02-28T13:24:45;7.45;;;3.83;;
37237;SDS011;23129;49.662;8.448;2023-02-28T13:33:28;5.85;;;3.53;;
37237;SDS011;23129;49.662;8.448;2023-02-28T13:38:56;5.18;;;4.18;;
37237;SDS011;23129;49.662;8.448;2023-02-28T13:41:48;4.60;;;4.13;;
37237;SDS011;23129;49.662;8.448;2023-02-28T13:44:18;8.55;;;3.67;;
37237;SDS011;23129;49.662;8.448;2023-02-28T13:50:07;5.27;;;3.80;;
37237;SDS011;23129;49.662;8.448;2023-02-28T13:52:51;5.32;;;3.15;;
37237;SDS011;23129;49.662;8.448;2023-02-28T13:55:43;5.82;;;4.07;;
37237;SDS011;23129;49.662;8.448;2023-02-28T13:58:25;5.65;;;4.40;;
37237;SDS011;23129;49.662;8.448;2023-02-28T14:01:12;5.60;;;4.07;;
37237;SDS011;23129;49.662;8.448;2023-02-28T14:03:58;5.20;;;3.57;;
37237;SDS011;23129;49.662;8.448;2023-02-28T14:07:06;7.80;;;4.03;;
37237;SDS011;23129;49.662;8.448;2023-02-28T14:09:38;5.20;;;4.50;;
37237;SDS011;23129;49.662;8.448;2023-02-28T14:15:25;5.53;;;4.68;;
37237;SDS011;23129;49.662;8.448;2023-02-28T14:18:19;7.32;;;4.22;;
37237;SDS011;23129;49.662;8.448;2023-02-28T14:20:54;6.20;;;4.20;;
37237;SDS011;23129;49.662;8.448;2023-02-28T14:23:38;7.07;;;4.10;;
37237;SDS011;23129;49.662;8.448;2023-02-28T14:26:41;7.82;;;4.00;;
37237;SDS011;23129;49.662;8.448;2023-02-28T14:33:20;9.45;;;5.47;;
37237;SDS011;23129;49.662;8.448;2023-02-28T14:36:01;7.90;;;5.75;;
37237;SDS011;23129;49.662;8.448;2023-02-28T14:38:42;5.97;;;4.30;;
37237;SDS011;23129;49.662;8.448;2023-02-28T14:41:16;7.15;;;4.88;;
37237;SDS011;23129;49.662;8.448;2023-02-28T14:43:54;10.45;;;4.45;;
37237;SDS011;23129;49.662;8.448;2023-02-28T14:46:26;7.90;;;4.13;;
37237;SDS011;23129;49.662;8.448;2023-02-28T14:51:30;9.40;;;3.72;;
37237;SDS011;23129;49.662;8.448;2023-02-28T14:54:00;5.53;;;4.47;;
37237;SDS011;23129;49.662;8.448;2023-02-28T14:56:30;7.72;;;4.00;;
37237;SDS011;23129;49.662;8.448;2023-02-28T14:59:05;5.50;;;4.07;;
37237;SDS011;23129;49.662;8.448;2023-02-28T15:01:52;5.05;;;4.30;;
37237;SDS011;23129;49.662;8.448;2023-02-28T15:04:35;6.07;;;4.55;;
37237;SDS011;23129;49.662;8.448;2023-02-28T15:07:07;7.05;;;4.07;;
37237;SDS011;23129;49.662;8.448;2023-02-28T15:09:36;5.43;;;4.03;;
37237;SDS011;23129;49.662;8.448;2023-02-28T15:12:04;7.80;;;4.70;;
37237;SDS011;23129;49.662;8.448;2023-02-28T15:14:34;6.80;;;4.30;;
37237;SDS011;23129;49.662;8.448;2023-02-28T15:17:06;10.52;;;4.07;;
37237;SDS011;23129;49.662;8.448;2023-02-28T15:19:45;6.15;;;4.28;;
37237;SDS011;23129;49.662;8.448;2023-02-28T15:22:20;6.18;;;3.80;;
37237;SDS011;23129;49.662;8.448;2023-02-28T15:24:55;6.53;;;3.90;;
37237;SDS011;23129;49.662;8.448;2023-02-28T15:27:25;6.38;;;4.40;;
37237;SDS011;23129;49.662;8.448;2023-02-28T15:30:00;7.40;;;4.30;;
37237;SDS011;23129;49.662;8.448;2023-02-28T15:32:39;9.02;;;4.78;;
37237;SDS011;23129;49.662;8.448;2023-02-28T15:35:18;8.27;;;4.07;;
37237;SDS011;23129;49.662;8.448;2023-02-28T15:37:56;4.43;;;3.92;;
37237;SDS011;23129;49.662;8.448;2023-02-28T15:40:28;8.57;;;4.85;;
37237;SDS011;23129;49.662;8.448;2023-02-28T15:43:00;6.63;;;4.30;;
37237;SDS011;23129;49.662;8.448;2023-02-28T15:45:36;6.75;;;4.15;;
37237;SDS011;23129;49.662;8.448;2023-02-28T15:48:14;6.63;;;3.38;;
37237;SDS011;23129;49.662;8.448;2023-02-28T15:50:47;6.85;;;3.83;;
37237;SDS011;23129;49.662;8.448;2023-02-28T15:53:19;5.07;;;3.88;;
37237;SDS011;23129;49.662;8.448;2023-02-28T15:55:53;6.80;;;4.35;;
37237;SDS011;23129;49.662;8.448;2023-02-28T15:58:26;5.53;;;3.75;;
37237;SDS011;23129;49.662;8.448;2023-02-28T16:01:06;14.60;;;4.50;;
37237;SDS011;23129;49.662;8.448;2023-02-28T16:03:48;9.73;;;4.55;;
37237;SDS011;23129;49.662;8.448;2023-02-28T16:06:31;7.70;;;4.32;;
37237;SDS011;23129;49.662;8.448;2023-02-28T16:09:09;13.55;;;4.80;;